createdAt,value
2023-01-30T00:01:20.297Z,97261.53
2023-01-30T00:03:47.310Z,97256.44
2023-01-30T00:06:14.186Z,97250.63
2023-01-30T00:08:40.514Z,97243.91
2023-01-30T00:11:09.523Z,97233.66
2023-01-30T00:13:36.164Z,97226.84
2023-01-30T00:16:02.562Z,97211.53
2023-01-30T00:18:29.130Z,97217.47
2023-01-30T00:20:59.347Z,97203.00
2023-01-30T00:23:26.340Z,97198.44
2023-01-30T00:25:52.794Z,97193.97
2023-01-30T00:28:19.304Z,97188.06
2023-01-30T00:30:48.212Z,97181.91
2023-01-30T00:33:14.552Z,97178.03
2023-01-30T00:35:47.807Z,97178.84
2023-01-30T00:38:14.926Z,97182.84
2023-01-30T00:40:42.772Z,97195.38
2023-01-30T00:43:31.249Z,97188.63
2023-01-30T00:46:16.790Z,97176.91
2023-01-30T00:48:43.123Z,97175.13
2023-01-30T00:51:09.450Z,97173.38
2023-01-30T00:53:35.879Z,97179.81
2023-01-30T00:56:02.288Z,97178.75
2023-01-30T00:58:28.774Z,97196.34
2023-01-30T01:00:56.364Z,97202.09
2023-01-30T01:03:22.838Z,97215.38
2023-01-30T01:05:49.312Z,97217.34
2023-01-30T01:08:15.877Z,97223.88
2023-01-30T01:10:44.374Z,97233.69
2023-01-30T01:13:13.709Z,97226.13
2023-01-30T01:15:40.084Z,97233.97
2023-01-30T01:18:07.512Z,97237.91
2023-01-30T01:20:33.914Z,97244.25
2023-01-30T01:23:00.271Z,97246.22
2023-01-30T01:25:26.854Z,97226.16
2023-01-30T01:27:54.071Z,97210.69
2023-01-30T01:30:20.677Z,97208.75
2023-01-30T01:32:47.156Z,97212.16
2023-01-30T01:35:13.586Z,97216.06
2023-01-30T01:37:39.949Z,97211.50
2023-01-30T01:40:25.364Z,97216.59
2023-01-30T01:42:51.886Z,97208.72
2023-01-30T01:45:21.001Z,97203.31
2023-01-30T01:48:09.485Z,97185.34
2023-01-30T01:51:14.286Z,97196.53
2023-01-30T01:53:44.584Z,97166.31
2023-01-30T01:56:14.599Z,97157.19
2023-01-30T01:58:45.818Z,97173.72
2023-01-30T02:01:12.213Z,97169.16
2023-01-30T02:03:42.527Z,97161.53
2023-01-30T02:06:09.983Z,97158.69
2023-01-30T02:08:41.193Z,97140.84
2023-01-30T02:11:16.876Z,97156.69
2023-01-30T02:13:44.500Z,97145.56
2023-01-30T02:16:11.025Z,97150.63
2023-01-30T02:18:39.889Z,97139.56
2023-01-30T02:21:07.287Z,97128.13
2023-01-30T02:23:36.624Z,97120.41
2023-01-30T02:26:13.824Z,97126.13
2023-01-30T02:28:52.125Z,97122.81
2023-01-30T02:31:46.299Z,97114.47
2023-01-30T02:34:15.714Z,97097.34
2023-01-30T02:37:04.781Z,97070.78
2023-01-30T02:39:40.387Z,97073.00
2023-01-30T02:42:13.646Z,97079.59
2023-01-30T02:44:49.017Z,97059.97
2023-01-30T02:47:19.046Z,97054.66
2023-01-30T02:50:01.095Z,97034.28
2023-01-30T02:52:29.204Z,97015.84
2023-01-30T02:55:06.630Z,97014.25
2023-01-30T02:57:32.971Z,97009.53
2023-01-30T03:00:01.435Z,97053.00
2023-01-30T03:02:27.812Z,97070.59
2023-01-30T03:05:09.001Z,97065.28
2023-01-30T03:07:44.144Z,97064.34
2023-01-30T03:10:21.818Z,97062.13
2023-01-30T03:13:02.908Z,97044.44
2023-01-30T03:15:31.449Z,97038.63
2023-01-30T03:17:58.116Z,97027.69
2023-01-30T03:20:24.573Z,97029.16
2023-01-30T03:22:50.905Z,97036.78
2023-01-30T03:25:22.088Z,97028.59
2023-01-30T03:27:50.249Z,97035.31
2023-01-30T03:30:16.798Z,97030.34
2023-01-30T03:32:43.108Z,97019.09
2023-01-30T03:35:09.812Z,97016.44
2023-01-30T03:37:36.174Z,97018.94
2023-01-30T03:40:02.685Z,97026.50
2023-01-30T03:42:29.417Z,97009.19
2023-01-30T03:44:55.749Z,96991.06
2023-01-30T03:47:26.135Z,96969.97
2023-01-30T03:49:52.474Z,96954.16
2023-01-30T03:52:19.239Z,96960.78
2023-01-30T03:54:45.780Z,96960.16
2023-01-30T03:57:12.117Z,96972.19
2023-01-30T03:59:38.518Z,96959.69
2023-01-30T04:02:04.901Z,96948.63
2023-01-30T04:04:31.308Z,96946.06
2023-01-30T04:06:57.642Z,96933.66
2023-01-30T04:09:23.973Z,96918.31
2023-01-30T04:11:57.117Z,96908.78
2023-01-30T04:14:23.498Z,96920.09
2023-01-30T04:16:58.763Z,96916.63
2023-01-30T04:19:25.382Z,96927.94
2023-01-30T04:21:51.725Z,96925.66
2023-01-30T04:24:18.038Z,96933.53
2023-01-30T04:26:44.512Z,96926.91
2023-01-30T04:29:11.103Z,96951.22
2023-01-30T04:31:37.584Z,96940.56
2023-01-30T04:34:04.037Z,96952.16
2023-01-30T04:36:31.513Z,96947.97
2023-01-30T04:38:58.279Z,96952.88
2023-01-30T04:41:24.742Z,96944.44
2023-01-30T04:43:51.143Z,96953.78
2023-01-30T04:46:17.564Z,96953.69
2023-01-30T04:48:49.767Z,96956.16
2023-01-30T04:51:16.138Z,96954.66
2023-01-30T04:53:42.464Z,96948.53
2023-01-30T04:56:09.411Z,96951.53
2023-01-30T04:58:35.774Z,96950.22
2023-01-30T05:01:20.754Z,96952.03
2023-01-30T05:03:49.462Z,96955.94
2023-01-30T05:06:15.798Z,96955.88
2023-01-30T05:08:42.378Z,96955.91
2023-01-30T05:11:08.711Z,96955.06
2023-01-30T05:13:35.087Z,96951.84
2023-01-30T05:16:10.482Z,96947.41
2023-01-30T05:18:36.837Z,96935.28
2023-01-30T05:21:08.334Z,96927.91
2023-01-30T05:23:35.111Z,96920.66
2023-01-30T05:26:02.021Z,96912.13
2023-01-30T05:28:29.053Z,96905.88
2023-01-30T05:31:07.743Z,96887.75
2023-01-30T05:33:34.474Z,96884.81
2023-01-30T05:36:13.792Z,96875.38
2023-01-30T05:38:40.175Z,96878.19
2023-01-30T05:41:07.903Z,96857.84
2023-01-30T05:43:35.374Z,96863.13
2023-01-30T05:46:02.744Z,96866.28
2023-01-30T05:48:38.347Z,96879.59
2023-01-30T05:51:04.989Z,96876.41
2023-01-30T05:53:35.584Z,96884.97
2023-01-30T05:56:03.570Z,96873.56
2023-01-30T05:58:29.963Z,96872.28
2023-01-30T06:01:05.169Z,96881.16
2023-01-30T06:03:32.100Z,96873.31
2023-01-30T06:05:58.574Z,96851.88
2023-01-30T06:08:25.059Z,96856.41
2023-01-30T06:10:51.487Z,96863.72
2023-01-30T06:13:17.883Z,96864.03
2023-01-30T06:15:44.235Z,96867.66
2023-01-30T06:18:10.685Z,96854.97
2023-01-30T06:20:37.226Z,96865.06
2023-01-30T06:23:03.601Z,96855.84
2023-01-30T06:25:29.934Z,96842.56
2023-01-30T06:27:56.409Z,96851.56
2023-01-30T06:30:22.807Z,96856.59
2023-01-30T06:32:52.395Z,96848.38
2023-01-30T06:35:19.253Z,96845.69
2023-01-30T06:37:46.101Z,96859.72
2023-01-30T06:40:12.925Z,96856.81
2023-01-30T06:42:39.340Z,96855.69
2023-01-30T06:45:06.065Z,96860.44
2023-01-30T06:47:32.398Z,96862.81
2023-01-30T06:49:58.713Z,96867.84
2023-01-30T06:52:39.978Z,96862.25
2023-01-30T06:55:06.674Z,96861.97
2023-01-30T06:57:33.036Z,96853.94
2023-01-30T06:59:59.370Z,96850.53
2023-01-30T07:02:25.716Z,96848.38
2023-01-30T07:04:52.064Z,96844.41
2023-01-30T07:07:18.593Z,96839.19
2023-01-30T07:09:45.614Z,96843.28
2023-01-30T07:12:12.095Z,96834.84
2023-01-30T07:14:38.491Z,96829.78
2023-01-30T07:17:04.994Z,96829.78
2023-01-30T07:19:31.337Z,96822.13
2023-01-30T07:21:57.674Z,96810.97
2023-01-30T07:24:25.057Z,96814.47
2023-01-30T07:26:51.460Z,96795.50
2023-01-30T07:29:18.926Z,96810.13
2023-01-30T07:31:45.276Z,96812.63
2023-01-30T07:34:19.479Z,96803.44
2023-01-30T07:36:45.842Z,96800.66
2023-01-30T07:39:12.247Z,96798.91
2023-01-30T07:41:38.625Z,96800.84
2023-01-30T07:44:05.068Z,96800.84
2023-01-30T07:46:35.067Z,96791.47
2023-01-30T07:49:02.348Z,96801.28
2023-01-30T07:51:30.181Z,96797.06
2023-01-30T07:53:56.507Z,96795.16
2023-01-30T07:56:22.951Z,96790.03
2023-01-30T07:58:50.025Z,96788.06
2023-01-30T08:01:17.183Z,96776.72
2023-01-30T08:03:45.839Z,96793.84
2023-01-30T08:06:13.872Z,96775.94
2023-01-30T08:08:46.233Z,96779.97
2023-01-30T08:11:12.583Z,96782.53
2023-01-30T08:13:38.913Z,96778.16
2023-01-30T08:16:06.856Z,96768.06
2023-01-30T08:18:34.058Z,96772.91
2023-01-30T08:21:07.170Z,96785.13
2023-01-30T08:23:33.941Z,96775.72
2023-01-30T08:26:01.964Z,96782.22
2023-01-30T08:28:33.470Z,96785.91
2023-01-30T08:30:59.908Z,96784.72
2023-01-30T08:33:26.366Z,96790.81
2023-01-30T08:35:52.840Z,96798.03
2023-01-30T08:38:20.217Z,96784.72
2023-01-30T08:40:46.608Z,96792.38
2023-01-30T08:43:12.936Z,96780.78
2023-01-30T08:45:39.264Z,96778.81
2023-01-30T08:48:06.227Z,96771.97
2023-01-30T08:50:39.691Z,96758.78
2023-01-30T08:53:07.240Z,96753.09
2023-01-30T08:55:33.682Z,96746.88
2023-01-30T08:58:00.326Z,96736.28
2023-01-30T09:00:27.639Z,96752.56
2023-01-30T09:02:57.885Z,96759.13
2023-01-30T09:05:34.580Z,96759.13
2023-01-30T09:08:00.990Z,96760.97
2023-01-30T09:10:27.647Z,96752.81
2023-01-30T09:12:54.442Z,96754.53
2023-01-30T09:15:20.912Z,96754.00
2023-01-30T09:17:47.358Z,96762.50
2023-01-30T09:20:13.763Z,96766.22
2023-01-30T09:22:40.173Z,96767.03
2023-01-30T09:25:08.326Z,96762.31
2023-01-30T09:27:35.138Z,96748.72
2023-01-30T09:30:01.463Z,96756.88
2023-01-30T09:32:30.186Z,96761.44
2023-01-30T09:34:56.560Z,96766.66
2023-01-30T09:37:23.011Z,96767.75
2023-01-30T09:39:49.391Z,96757.41
2023-01-30T09:42:27.044Z,96758.19
2023-01-30T09:45:11.885Z,96750.22
2023-01-30T09:47:58.318Z,96760.97
2023-01-30T09:50:38.403Z,96751.78
2023-01-30T09:53:08.450Z,96737.69
2023-01-30T09:55:38.489Z,96749.75
2023-01-30T09:58:04.984Z,96731.91
2023-01-30T10:00:39.481Z,96730.56
2023-01-30T10:03:08.870Z,96723.31
2023-01-30T10:05:40.626Z,96718.56
2023-01-30T10:08:17.421Z,96734.00
2023-01-30T10:11:09.688Z,96725.69
2023-01-30T10:13:56.032Z,96737.72
2023-01-30T10:16:32.119Z,96729.59
2023-01-30T10:19:36.487Z,96730.97
2023-01-30T10:22:17.683Z,96724.50
2023-01-30T10:25:19.681Z,96715.16
2023-01-30T10:27:50.130Z,96721.00
2023-01-30T10:30:17.438Z,96725.34
2023-01-30T10:32:48.593Z,96702.28
2023-01-30T10:35:20.651Z,96712.28
2023-01-30T10:37:58.384Z,96715.16
2023-01-30T10:40:35.395Z,96720.09
2023-01-30T10:43:06.139Z,96722.16
2023-01-30T10:45:38.200Z,96711.19
2023-01-30T10:48:04.942Z,96720.59
2023-01-30T10:50:51.698Z,96717.31
2023-01-30T10:53:18.276Z,96714.94
2023-01-30T10:55:48.403Z,96709.91
2023-01-30T10:58:26.508Z,96710.47
2023-01-30T11:01:00.681Z,96707.88
2023-01-30T11:03:33.066Z,96702.13
2023-01-30T11:06:10.985Z,96705.53
2023-01-30T11:08:37.423Z,96697.88
2023-01-30T11:11:22.563Z,96688.03
2023-01-30T11:13:48.887Z,96682.28
2023-01-30T11:16:15.711Z,96684.44
2023-01-30T11:21:43.442Z,96684.56
2023-01-30T11:24:17.053Z,96688.53
2023-01-30T11:26:54.725Z,96679.25
2023-01-30T11:29:26.979Z,96676.19
2023-01-30T11:31:54.016Z,96665.97
2023-01-30T11:34:21.862Z,96673.16
2023-01-30T11:36:48.670Z,96678.44
2023-01-30T11:39:18.728Z,96664.00
2023-01-30T11:41:54.282Z,96667.41
2023-01-30T11:44:27.657Z,96656.44
2023-01-30T11:46:54.259Z,96653.38
2023-01-30T11:49:45.046Z,96658.69
2023-01-30T11:52:08.607Z,96650.91
2023-01-30T11:54:41.922Z,96653.16
2023-01-30T11:57:13.230Z,96648.91
2023-01-30T11:59:54.098Z,96651.50
2023-01-30T12:02:23.509Z,96642.94
2023-01-30T12:04:57.257Z,96637.03
2023-01-30T12:07:25.264Z,96635.75
2023-01-30T12:09:53.024Z,96637.66
2023-01-30T12:12:43.625Z,96634.22
2023-01-30T12:15:16.269Z,96643.28
2023-01-30T12:17:46.697Z,96645.84
2023-01-30T12:20:18.036Z,96642.13
2023-01-30T12:22:49.882Z,96639.50
2023-01-30T12:25:18.201Z,96631.53
2023-01-30T12:27:52.992Z,96639.38
2023-01-30T12:30:28.127Z,96642.34
2023-01-30T12:32:57.537Z,96635.03
2023-01-30T12:35:28.739Z,96636.41
2023-01-30T12:38:04.063Z,96632.75
2023-01-30T12:40:50.251Z,96631.00
2023-01-30T12:43:25.015Z,96632.75
2023-01-30T12:46:09.677Z,96630.63
2023-01-30T12:49:10.294Z,96635.50
2023-01-30T12:51:52.831Z,96631.41
2023-01-30T12:54:20.341Z,96610.69
2023-01-30T12:56:49.116Z,96607.94
2023-01-30T12:59:15.789Z,96592.94
2023-01-30T13:01:48.169Z,96607.47
2023-01-30T13:04:24.821Z,96599.91
2023-01-30T13:07:06.442Z,96613.34
2023-01-30T13:09:47.840Z,96604.88
2023-01-30T13:12:23.698Z,96606.03
2023-01-30T13:15:10.089Z,96604.38
2023-01-30T13:17:40.889Z,96601.69
2023-01-30T13:20:13.119Z,96613.91
2023-01-30T13:23:01.308Z,96607.25
2023-01-30T13:25:32.899Z,96620.50
2023-01-30T13:28:02.378Z,96620.59
2023-01-30T13:30:31.115Z,96627.28
2023-01-30T13:32:59.507Z,96641.38
2023-01-30T13:35:35.061Z,96627.09
2023-01-30T13:38:03.323Z,96630.47
2023-01-30T13:40:34.495Z,96625.94
2023-01-30T13:43:07.222Z,96600.34
2023-01-30T13:45:35.000Z,96609.84
2023-01-30T13:48:03.577Z,96623.25
2023-01-30T13:50:35.847Z,96621.94
2023-01-30T13:53:11.325Z,96616.03
2023-01-30T13:55:46.822Z,96621.66
2023-01-30T13:58:19.629Z,96626.19
2023-01-30T14:00:55.645Z,96623.34
2023-01-30T14:03:24.128Z,96641.47
2023-01-30T14:06:09.043Z,96645.38
2023-01-30T14:08:49.764Z,96641.91
2023-01-30T14:11:25.464Z,96639.75
2023-01-30T14:13:53.616Z,96643.78
2023-01-30T14:16:20.253Z,96648.19
2023-01-30T14:18:46.718Z,96636.41
2023-01-30T14:21:24.574Z,96640.00
2023-01-30T14:24:17.439Z,96648.34
2023-01-30T14:26:56.130Z,96656.06
2023-01-30T14:29:42.918Z,96664.97
2023-01-30T14:32:09.265Z,96651.56
2023-01-30T14:34:43.440Z,96653.59
2023-01-30T14:37:29.695Z,96657.88
2023-01-30T14:39:57.033Z,96650.22
2023-01-30T14:42:25.151Z,96651.91
2023-01-30T14:44:57.605Z,96649.47
2023-01-30T14:47:34.447Z,96656.78
2023-01-30T14:50:18.648Z,96657.63
2023-01-30T14:52:46.710Z,96651.91
2023-01-30T14:55:21.249Z,96660.34
2023-01-30T14:57:55.770Z,96670.22
2023-01-30T15:00:24.689Z,96669.31
2023-01-30T15:02:56.403Z,96669.41
2023-01-30T15:05:28.429Z,96676.63
2023-01-30T15:08:02.493Z,96674.38
2023-01-30T15:10:47.669Z,96681.28
2023-01-30T15:13:14.005Z,96680.72
2023-01-30T15:16:03.832Z,96680.44
2023-01-30T15:18:36.278Z,96693.97
2023-01-30T15:21:25.119Z,96702.09
2023-01-30T15:23:59.151Z,96716.38
2023-01-30T15:26:35.998Z,96726.81
2023-01-30T15:29:21.984Z,96729.69
2023-01-30T15:31:55.949Z,96726.41
2023-01-30T15:34:23.150Z,96726.84
2023-01-30T15:36:49.629Z,96740.72
2023-01-30T15:39:17.416Z,96735.34
2023-01-30T15:41:43.836Z,96721.53
2023-01-30T15:44:18.879Z,96747.72
2023-01-30T15:46:54.330Z,96741.94
2023-01-30T15:49:30.180Z,96752.63
2023-01-30T15:52:01.133Z,96746.78
2023-01-30T15:54:27.527Z,96753.34
2023-01-30T15:56:56.116Z,96758.28
2023-01-30T15:59:25.433Z,96761.38
2023-01-30T16:02:02.908Z,96756.66
2023-01-30T16:04:29.857Z,96760.16
2023-01-30T16:06:56.420Z,96761.84
2023-01-30T16:09:23.966Z,96779.25
2023-01-30T16:11:50.544Z,96777.94
2023-01-30T16:14:19.016Z,96779.88
2023-01-30T16:16:53.755Z,96775.84
2023-01-30T16:19:26.627Z,96787.84
2023-01-30T16:21:55.761Z,96787.03
2023-01-30T16:24:24.842Z,96799.41
2023-01-30T16:26:53.437Z,96796.34
2023-01-30T16:29:23.200Z,96796.47
2023-01-30T16:31:52.887Z,96795.41
2023-01-30T16:34:25.405Z,96803.88
2023-01-30T16:36:51.746Z,96814.34
2023-01-30T16:39:51.525Z,96808.34
2023-01-30T16:42:24.324Z,96808.00
2023-01-30T16:44:50.730Z,96816.25
2023-01-30T16:47:27.871Z,96819.63
2023-01-30T16:49:55.861Z,96829.66
2023-01-30T16:52:31.922Z,96830.69
2023-01-30T16:54:59.944Z,96842.59
2023-01-30T16:57:31.726Z,96831.88
2023-01-30T16:59:58.459Z,96842.84
2023-01-30T17:02:28.301Z,96836.72
2023-01-30T17:04:54.665Z,96835.19
2023-01-30T17:07:32.762Z,96837.28
2023-01-30T17:09:59.324Z,96847.06
2023-01-30T17:12:25.720Z,96870.28
2023-01-30T17:15:24.591Z,96869.94
2023-01-30T17:17:51.075Z,96867.34
2023-01-30T17:20:17.503Z,96872.75
2023-01-30T17:22:45.499Z,96872.75
2023-01-30T17:25:18.538Z,96871.47
2023-01-30T17:27:47.084Z,96881.94
2023-01-30T17:30:19.110Z,96881.34
2023-01-30T17:32:50.665Z,96873.69
2023-01-30T17:35:21.854Z,96872.63
2023-01-30T17:37:56.402Z,96873.00
2023-01-30T17:40:35.916Z,96878.03
2023-01-30T17:43:02.346Z,96878.88
2023-01-30T17:45:28.897Z,96881.00
2023-01-30T17:47:55.722Z,96877.34
2023-01-30T17:50:22.258Z,96890.53
2023-01-30T17:52:48.746Z,96887.00
2023-01-30T17:55:16.378Z,96882.41
2023-01-30T17:57:44.282Z,96890.53
2023-01-30T18:00:15.055Z,96893.97
2023-01-30T18:02:41.708Z,96890.78
2023-01-30T18:05:09.154Z,96900.91
2023-01-30T18:07:42.606Z,96904.00
2023-01-30T18:10:13.753Z,96905.03
2023-01-30T18:12:40.158Z,96913.75
2023-01-30T18:15:06.801Z,96922.72
2023-01-30T18:17:42.577Z,96918.72
2023-01-30T18:20:11.232Z,96908.22
2023-01-30T18:22:43.276Z,96930.81
2023-01-30T18:25:13.264Z,96931.06
2023-01-30T18:27:44.192Z,96937.34
2023-01-30T18:30:14.139Z,96940.25
2023-01-30T18:32:51.993Z,96924.00
2023-01-30T18:35:19.174Z,96926.59
2023-01-30T18:37:45.632Z,96922.22
2023-01-30T18:40:15.169Z,96924.34
2023-01-30T18:42:45.843Z,96936.03
2023-01-30T18:45:12.213Z,96945.44
2023-01-30T18:47:38.558Z,96951.94
2023-01-30T18:50:05.754Z,96953.81
2023-01-30T18:52:32.132Z,96951.94
2023-01-30T18:54:58.477Z,96959.81
2023-01-30T18:57:24.826Z,96957.22
2023-01-30T18:59:51.520Z,96975.97
2023-01-30T19:02:17.897Z,96972.41
2023-01-30T19:04:44.389Z,96988.47
2023-01-30T19:07:11.257Z,96976.91
2023-01-30T19:09:37.743Z,96987.16
2023-01-30T19:12:23.059Z,96991.19
2023-01-30T19:14:50.419Z,96997.88
2023-01-30T19:17:17.169Z,97003.06
2023-01-30T19:19:43.962Z,97015.69
2023-01-30T19:22:10.318Z,97007.19
2023-01-30T19:24:36.671Z,97020.50
2023-01-30T19:27:03.867Z,97036.31
2023-01-30T19:29:30.321Z,97027.00
2023-01-30T19:31:57.880Z,97031.13
2023-01-30T19:34:24.283Z,97032.56
2023-01-30T19:36:50.771Z,97029.63
2023-01-30T19:39:17.227Z,97047.63
2023-01-30T19:41:43.594Z,97050.72
2023-01-30T19:44:11.643Z,97050.13
2023-01-30T19:46:45.048Z,97060.50
2023-01-30T19:49:11.842Z,97063.56
2023-01-30T19:51:38.254Z,97065.97
2023-01-30T19:54:06.091Z,97071.16
2023-01-30T19:56:33.112Z,97059.88
2023-01-30T19:59:00.539Z,97059.97
2023-01-30T20:01:29.944Z,97052.56
2023-01-30T20:03:57.031Z,97060.56
2023-01-30T20:06:26.586Z,97067.63
2023-01-30T20:08:54.462Z,97059.66
2023-01-30T20:11:21.904Z,97062.63
2023-01-30T20:13:48.448Z,97060.78
2023-01-30T20:16:19.494Z,97075.75
2023-01-30T20:18:48.228Z,97067.63
2023-01-30T20:21:19.388Z,97082.03
2023-01-30T20:23:46.661Z,97084.09
2023-01-30T20:26:14.496Z,97078.72
2023-01-30T20:28:41.542Z,97081.97
2023-01-30T20:31:12.765Z,97074.22
2023-01-30T20:33:39.360Z,97077.84
2023-01-30T20:36:07.161Z,97075.47
2023-01-30T20:38:34.454Z,97071.19
2023-01-30T20:41:01.678Z,97069.59
2023-01-30T20:43:29.793Z,97078.81
2023-01-30T20:46:09.682Z,97078.50
2023-01-30T20:48:38.520Z,97074.72
2023-01-30T20:51:06.180Z,97079.44
2023-01-30T20:53:32.946Z,97078.38
2023-01-30T20:55:59.950Z,97088.28
2023-01-30T20:58:27.616Z,97086.88
2023-01-30T21:00:54.369Z,97094.97
2023-01-30T21:03:23.315Z,97098.28
2023-01-30T21:05:56.914Z,97079.44
2023-01-30T21:08:23.325Z,97096.31
2023-01-30T21:10:49.671Z,97104.16
2023-01-30T21:13:17.136Z,97119.47
2023-01-30T21:15:43.466Z,97116.00
2023-01-30T21:18:09.803Z,97117.47
2023-01-30T21:20:36.576Z,97124.94
2023-01-30T21:23:03.269Z,97121.41
2023-01-30T21:25:34.582Z,97122.94
2023-01-30T21:28:01.933Z,97131.50
2023-01-30T21:30:28.363Z,97129.88
2023-01-30T21:32:54.812Z,97120.66
2023-01-30T21:35:21.381Z,97120.84
2023-01-30T21:38:06.424Z,97132.00
2023-01-30T21:40:54.683Z,97136.97
2023-01-30T21:43:21.054Z,97153.28
2023-01-30T21:45:47.542Z,97154.19
2023-01-30T21:48:14.103Z,97147.81
2023-01-30T21:50:41.496Z,97157.63
2023-01-30T21:53:07.882Z,97162.22
2023-01-30T21:55:34.226Z,97153.75
2023-01-30T21:58:00.634Z,97163.03
2023-01-30T22:00:26.962Z,97168.53
2023-01-30T22:02:53.295Z,97183.56
2023-01-30T22:05:20.335Z,97189.97
2023-01-30T22:07:46.883Z,97192.84
2023-01-30T22:10:13.420Z,97194.50
2023-01-30T22:12:41.475Z,97190.97
2023-01-30T22:15:08.547Z,97195.03
2023-01-30T22:17:35.078Z,97199.53
2023-01-30T22:20:01.486Z,97195.72
2023-01-30T22:22:30.117Z,97206.56
2023-01-30T22:24:56.604Z,97213.69
2023-01-30T22:27:22.946Z,97199.19
2023-01-30T22:29:56.244Z,97205.06
2023-01-30T22:32:22.631Z,97203.59
2023-01-30T22:34:54.664Z,97208.59
2023-01-30T22:37:21.053Z,97202.19
2023-01-30T22:39:50.537Z,97211.03
2023-01-30T22:42:19.450Z,97215.06
2023-01-30T22:44:50.869Z,97211.50
2023-01-30T22:47:17.257Z,97216.22
2023-01-30T22:49:44.022Z,97213.41
2023-01-30T22:52:10.484Z,97216.28
2023-01-30T22:54:37.211Z,97214.72
2023-01-30T22:57:05.778Z,97222.34
2023-01-30T22:59:32.243Z,97210.63
2023-01-30T23:01:58.611Z,97220.50
2023-01-30T23:04:25.090Z,97223.31
2023-01-30T23:06:52.041Z,97212.47
2023-01-30T23:09:20.298Z,97210.63
2023-01-30T23:12:11.101Z,97217.16
2023-01-30T23:14:39.377Z,97217.34
2023-01-30T23:17:26.478Z,97217.63
2023-01-30T23:19:53.644Z,97212.34
2023-01-30T23:22:20.250Z,97205.31
2023-01-30T23:24:48.557Z,97203.56
2023-01-30T23:27:15.063Z,97204.03
2023-01-30T23:29:41.457Z,97198.41
2023-01-30T23:32:09.927Z,97206.47
2023-01-30T23:34:36.578Z,97203.31
2023-01-30T23:37:03.024Z,97209.22
2023-01-30T23:39:29.323Z,97199.75
2023-01-30T23:41:55.662Z,97198.91
2023-01-30T23:44:22.100Z,97206.28
2023-01-30T23:46:48.445Z,97206.16
2023-01-30T23:49:15.064Z,97191.06
2023-01-30T23:51:42.340Z,97195.09
2023-01-30T23:54:09.265Z,97193.03
2023-01-30T23:56:37.549Z,97201.41
2023-01-30T23:59:04.479Z,97193.13
